sensor_id;sensor_type;location;lat;lon;timestamp;pressure;altitude;pressure_sealevel;temperature;humidity
10946;BME280;5525;42.648;23.368;2022-07-30T00:01:59;94690.00;;;22.44;58.47
10946;BME280;5525;42.648;23.368;2022-07-30T00:04:26;94668.47;;;22.22;58.95
10946;BME280;5525;42.648;23.368;2022-07-30T00:06:53;94616.69;;;21.92;58.76
10946;BME280;5525;42.648;23.368;2022-07-30T00:09:19;94675.13;;;22.28;58.82
10946;BME280;5525;42.648;23.368;2022-07-30T00:11:48;94677.88;;;22.28;58.45
10946;BME280;5525;42.648;23.368;2022-07-30T00:14:15;94663.38;;;22.20;58.91
10946;BME280;5525;42.648;23.368;2022-07-30T00:16:42;94676.31;;;22.23;59.13
10946;BME280;5525;42.648;23.368;2022-07-30T00:19:09;94668.47;;;22.22;59.36
10946;BME280;5525;42.648;23.368;2022-07-30T00:21:36;94667.69;;;22.21;59.69
10946;BME280;5525;42.648;23.368;2022-07-30T00:24:04;94643.75;;;22.01;59.49
10946;BME280;5525;42.648;23.368;2022-07-30T00:26:31;94670.44;;;22.18;59.73
10946;BME280;5525;42.648;23.368;2022-07-30T00:29:00;94669.25;;;22.22;59.43
10946;BME280;5525;42.648;23.368;2022-07-30T00:31:27;94655.13;;;22.10;59.97
10946;BME280;5525;42.648;23.368;2022-07-30T00:33:53;94664.16;;;22.14;59.86
10946;BME280;5525;42.648;23.368;2022-07-30T00:36:20;94669.66;;;22.14;59.86
10946;BME280;5525;42.648;23.368;2022-07-30T00:38:47;94644.53;;;22.01;59.46
10946;BME280;5525;42.648;23.368;2022-07-30T00:41:14;94666.13;;;22.17;59.56
10946;BME280;5525;42.648;23.368;2022-07-30T00:43:41;94665.31;;;22.13;59.90
10946;BME280;5525;42.648;23.368;2022-07-30T00:46:09;94663.00;;;22.08;60.41
10946;BME280;5525;42.648;23.368;2022-07-30T00:48:36;94657.88;;;22.10;60.22
10946;BME280;5525;42.648;23.368;2022-07-30T00:51:03;94650.03;;;21.98;60.63
10946;BME280;5525;42.648;23.368;2022-07-30T00:53:30;94662.59;;;22.06;60.81
10946;BME280;5525;42.648;23.368;2022-07-30T00:55:57;94643.00;;;22.00;60.38
10946;BME280;5525;42.648;23.368;2022-07-30T00:58:24;94635.13;;;21.92;60.90
10946;BME280;5525;42.648;23.368;2022-07-30T01:00:51;94657.91;;;22.06;61.08
10946;BME280;5525;42.648;23.368;2022-07-30T01:03:19;94653.59;;;21.98;61.59
10946;BME280;5525;42.648;23.368;2022-07-30T01:05:46;94645.75;;;22.00;61.66
10946;BME280;5525;42.648;23.368;2022-07-30T01:08:13;94648.09;;;22.02;61.71
10946;BME280;5525;42.648;23.368;2022-07-30T01:10:40;94635.53;;;21.87;61.89
10946;BME280;5525;42.648;23.368;2022-07-30T01:13:06;94652.44;;;21.96;62.53
10946;BME280;5525;42.648;23.368;2022-07-30T01:15:34;94640.66;;;21.85;63.09
10946;BME280;5525;42.648;23.368;2022-07-30T01:18:04;94645.75;;;21.93;62.92
10946;BME280;5525;42.648;23.368;2022-07-30T01:20:37;94635.94;;;21.85;62.94
10946;BME280;5525;42.648;23.368;2022-07-30T01:23:12;94652.81;;;21.87;63.61
10946;BME280;5525;42.648;23.368;2022-07-30T01:25:49;94617.88;;;21.66;63.80
10946;BME280;5525;42.648;23.368;2022-07-30T01:28:21;94658.34;;;21.80;64.42
10946;BME280;5525;42.648;23.368;2022-07-30T01:30:49;94656.38;;;21.77;64.83
10946;BME280;5525;42.648;23.368;2022-07-30T01:33:17;94660.69;;;21.67;65.58
10946;BME280;5525;42.648;23.368;2022-07-30T01:35:46;94661.06;;;21.66;65.39
10946;BME280;5525;42.648;23.368;2022-07-30T01:38:16;94642.22;;;21.61;65.32
10946;BME280;5525;42.648;23.368;2022-07-30T01:40:48;94650.44;;;21.68;65.15
10946;BME280;5525;42.648;23.368;2022-07-30T01:43:16;94641.84;;;21.66;65.39
10946;BME280;5525;42.648;23.368;2022-07-30T01:45:45;94651.63;;;21.63;65.37
10946;BME280;5525;42.648;23.368;2022-07-30T01:48:13;94650.06;;;21.69;65.25
10946;BME280;5525;42.648;23.368;2022-07-30T01:50:44;94647.75;;;21.79;65.07
10946;BME280;5525;42.648;23.368;2022-07-30T01:53:13;94648.09;;;21.81;64.51
10946;BME280;5525;42.648;23.368;2022-07-30T01:55:41;94648.13;;;21.84;64.31
10946;BME280;5525;42.648;23.368;2022-07-30T01:58:11;94654.00;;;21.86;64.36
10946;BME280;5525;42.648;23.368;2022-07-30T02:00:41;94628.06;;;21.87;63.44
10946;BME280;5525;42.648;23.368;2022-07-30T02:03:09;94647.69;;;22.00;62.91
10946;BME280;5525;42.648;23.368;2022-07-30T02:05:37;94641.75;;;22.08;62.39
10946;BME280;5525;42.648;23.368;2022-07-30T02:08:07;94634.78;;;21.86;63.17
10946;BME280;5525;42.648;23.368;2022-07-30T02:10:41;94646.50;;;22.04;62.63
10946;BME280;5525;42.648;23.368;2022-07-30T02:13:11;94636.66;;;22.07;62.52
10946;BME280;5525;42.648;23.368;2022-07-30T02:15:43;94595.88;;;21.73;62.40
10946;BME280;5525;42.648;23.368;2022-07-30T02:18:15;94642.19;;;22.03;62.47
10946;BME280;5525;42.648;23.368;2022-07-30T02:20:44;94631.59;;;21.98;62.45
10946;BME280;5525;42.648;23.368;2022-07-30T02:23:14;94627.66;;;22.03;62.43
10946;BME280;5525;42.648;23.368;2022-07-30T02:25:48;94626.88;;;21.99;62.53
10946;BME280;5525;42.648;23.368;2022-07-30T02:28:18;94641.78;;;21.94;62.94
10946;BME280;5525;42.648;23.368;2022-07-30T02:30:49;94628.06;;;21.87;63.40
10946;BME280;5525;42.648;23.368;2022-07-30T02:33:18;94628.84;;;22.02;62.50
10946;BME280;5525;42.648;23.368;2022-07-30T02:35:47;94631.59;;;21.98;63.07
10946;BME280;5525;42.648;23.368;2022-07-30T02:38:17;94628.44;;;22.00;62.91
10946;BME280;5525;42.648;23.368;2022-07-30T02:40:46;94627.69;;;21.96;63.62
10946;BME280;5525;42.648;23.368;2022-07-30T02:43:14;94610.00;;;21.72;63.89
10946;BME280;5525;42.648;23.368;2022-07-30T02:45:45;94628.06;;;21.91;63.81
10946;BME280;5525;42.648;23.368;2022-07-30T02:48:13;94627.69;;;21.78;64.57
10946;BME280;5525;42.648;23.368;2022-07-30T02:50:41;94608.47;;;21.53;65.32
10946;BME280;5525;42.648;23.368;2022-07-30T02:53:09;94619.03;;;21.62;65.18
10946;BME280;5525;42.648;23.368;2022-07-30T02:55:37;94627.31;;;21.69;65.32
10946;BME280;5525;42.648;23.368;2022-07-30T02:58:06;94632.81;;;21.76;65.31
10946;BME280;5525;42.648;23.368;2022-07-30T03:00:36;94627.31;;;21.83;64.82
10946;BME280;5525;42.648;23.368;2022-07-30T03:03:06;94610.00;;;21.65;65.76
10946;BME280;5525;42.648;23.368;2022-07-30T03:05:35;94618.66;;;21.74;65.78
10946;BME280;5525;42.648;23.368;2022-07-30T03:08:03;94613.97;;;21.71;65.86
10946;BME280;5525;42.648;23.368;2022-07-30T03:10:31;94604.56;;;21.51;66.74
10946;BME280;5525;42.648;23.368;2022-07-30T03:12:59;94588.84;;;21.44;67.09
10946;BME280;5525;42.648;23.368;2022-07-30T03:15:27;94606.50;;;21.57;67.49
10946;BME280;5525;42.648;23.368;2022-07-30T03:17:56;94613.56;;;21.58;67.63
10946;BME280;5525;42.648;23.368;2022-07-30T03:20:27;94605.31;;;21.51;67.99
10946;BME280;5525;42.648;23.368;2022-07-30T03:22:57;94619.06;;;21.51;68.68
10946;BME280;5525;42.648;23.368;2022-07-30T03:25:26;94614.75;;;21.47;69.15
10946;BME280;5525;42.648;23.368;2022-07-30T03:27:55;94613.97;;;21.36;69.96
10946;BME280;5525;42.648;23.368;2022-07-30T03:30:24;94608.06;;;21.23;70.72
10946;BME280;5525;42.648;23.368;2022-07-30T03:32:52;94611.63;;;21.31;70.98
10946;BME280;5525;42.648;23.368;2022-07-30T03:35:21;94617.50;;;21.26;71.63
10946;BME280;5525;42.648;23.368;2022-07-30T03:37:50;94540.19;;;20.68;72.58
10946;BME280;5525;42.648;23.368;2022-07-30T03:40:18;94630.44;;;21.11;73.27
10946;BME280;5525;42.648;23.368;2022-07-30T03:42:46;94614.38;;;21.06;73.72
10946;BME280;5525;42.648;23.368;2022-07-30T03:45:13;94627.31;;;21.06;74.16
10946;BME280;5525;42.648;23.368;2022-07-30T03:47:42;94617.84;;;20.93;74.58
10946;BME280;5525;42.648;23.368;2022-07-30T03:50:09;94622.97;;;20.98;75.02
10946;BME280;5525;42.648;23.368;2022-07-30T03:52:38;94610.00;;;20.84;75.51
10946;BME280;5525;42.648;23.368;2022-07-30T03:55:09;94635.47;;;20.92;76.12
10946;BME280;5525;42.648;23.368;2022-07-30T03:57:37;94616.66;;;20.80;76.30
10946;BME280;5525;42.648;23.368;2022-07-30T04:00:05;94628.81;;;20.89;76.52
10946;BME280;5525;42.648;23.368;2022-07-30T04:02:40;94596.63;;;20.79;76.42
10946;BME280;5525;42.648;23.368;2022-07-30T04:05:07;94627.31;;;21.20;74.77
10946;BME280;5525;42.648;23.368;2022-07-30T04:07:34;94619.44;;;21.71;71.11
10946;BME280;5525;42.648;23.368;2022-07-30T04:10:01;94638.09;;;22.50;66.55
10946;BME280;5525;42.648;23.368;2022-07-30T04:12:29;94640.94;;;23.11;62.59
10946;BME280;5525;42.648;23.368;2022-07-30T04:14:57;94638.19;;;23.66;58.92
10946;BME280;5525;42.648;23.368;2022-07-30T04:17:28;94634.81;;;24.29;55.62
10946;BME280;5525;42.648;23.368;2022-07-30T04:19:59;94639.09;;;24.98;51.95
10946;BME280;5525;42.648;23.368;2022-07-30T04:22:31;94622.63;;;25.17;50.37
10946;BME280;5525;42.648;23.368;2022-07-30T04:25:01;94636.44;;;25.17;50.29
10946;BME280;5525;42.648;23.368;2022-07-30T04:27:31;94640.97;;;25.34;49.32
10946;BME280;5525;42.648;23.368;2022-07-30T04:29:58;94627.00;;;25.45;48.80
10946;BME280;5525;42.648;23.368;2022-07-30T04:32:25;94636.25;;;25.81;47.84
10946;BME280;5525;42.648;23.368;2022-07-30T04:34:54;94646.66;;;26.19;46.31
10946;BME280;5525;42.648;23.368;2022-07-30T04:37:23;94625.69;;;26.61;45.16
10946;BME280;5525;42.648;23.368;2022-07-30T04:39:50;94630.34;;;27.03;43.78
10946;BME280;5525;42.648;23.368;2022-07-30T04:42:19;94648.31;;;27.50;43.20
10946;BME280;5525;42.648;23.368;2022-07-30T04:44:47;94646.34;;;28.44;40.92
10946;BME280;5525;42.648;23.368;2022-07-30T04:47:14;94637.88;;;28.51;40.08
10946;BME280;5525;42.648;23.368;2022-07-30T04:49:42;94645.91;;;28.61;40.04
10946;BME280;5525;42.648;23.368;2022-07-30T04:52:09;94649.28;;;29.10;38.81
10946;BME280;5525;42.648;23.368;2022-07-30T04:54:40;94644.06;;;28.83;39.16
10946;BME280;5525;42.648;23.368;2022-07-30T04:57:09;94662.56;;;29.02;38.84
10946;BME280;5525;42.648;23.368;2022-07-30T04:59:36;94624.06;;;29.67;37.67
10946;BME280;5525;42.648;23.368;2022-07-30T05:02:06;94649.97;;;30.48;36.40
10946;BME280;5525;42.648;23.368;2022-07-30T05:04:34;94647.81;;;30.52;36.07
10946;BME280;5525;42.648;23.368;2022-07-30T05:07:02;94642.81;;;31.03;35.20
10946;BME280;5525;42.648;23.368;2022-07-30T05:09:31;94636.81;;;32.05;33.25
10946;BME280;5525;42.648;23.368;2022-07-30T05:11:58;94647.75;;;32.48;32.72
10946;BME280;5525;42.648;23.368;2022-07-30T05:14:25;94638.91;;;32.77;32.04
10946;BME280;5525;42.648;23.368;2022-07-30T05:16:53;94656.44;;;33.41;31.67
10946;BME280;5525;42.648;23.368;2022-07-30T05:19:22;94651.31;;;34.37;30.14
10946;BME280;5525;42.648;23.368;2022-07-30T05:21:49;94652.78;;;33.67;30.76
10946;BME280;5525;42.648;23.368;2022-07-30T05:24:16;94657.56;;;34.41;29.63
10946;BME280;5525;42.648;23.368;2022-07-30T05:26:43;94653.03;;;34.67;29.10
10946;BME280;5525;42.648;23.368;2022-07-30T05:29:10;94658.34;;;33.76;30.69
10946;BME280;5525;42.648;23.368;2022-07-30T05:31:37;94658.25;;;34.27;30.31
10946;BME280;5525;42.648;23.368;2022-07-30T05:34:05;94656.53;;;35.15;28.93
10946;BME280;5525;42.648;23.368;2022-07-30T05:36:33;94657.09;;;35.04;29.09
10946;BME280;5525;42.648;23.368;2022-07-30T05:39:00;94646.13;;;34.92;29.59
10946;BME280;5525;42.648;23.368;2022-07-30T05:41:28;94656.31;;;35.18;29.19
10946;BME280;5525;42.648;23.368;2022-07-30T05:43:54;94645.97;;;35.10;29.19
10946;BME280;5525;42.648;23.368;2022-07-30T05:46:22;94639.72;;;35.44;28.30
10946;BME280;5525;42.648;23.368;2022-07-30T05:48:49;94670.78;;;35.69;28.14
10946;BME280;5525;42.648;23.368;2022-07-30T05:51:16;94675.72;;;36.93;26.79
10946;BME280;5525;42.648;23.368;2022-07-30T05:53:46;94609.97;;;35.52;27.94
10946;BME280;5525;42.648;23.368;2022-07-30T05:56:13;94658.09;;;35.74;28.19
10946;BME280;5525;42.648;23.368;2022-07-30T05:58:40;94673.50;;;35.64;28.61
10946;BME280;5525;42.648;23.368;2022-07-30T06:01:07;94651.91;;;36.19;27.96
10946;BME280;5525;42.648;23.368;2022-07-30T06:03:34;94658.88;;;37.70;26.22
10946;BME280;5525;42.648;23.368;2022-07-30T06:06:01;94669.34;;;38.68;24.93
10946;BME280;5525;42.648;23.368;2022-07-30T06:08:28;94659.13;;;39.51;23.82
10946;BME280;5525;42.648;23.368;2022-07-30T06:10:56;94672.28;;;39.76;23.56
10946;BME280;5525;42.648;23.368;2022-07-30T06:13:23;94687.19;;;40.32;23.23
10946;BME280;5525;42.648;23.368;2022-07-30T06:15:50;94692.81;;;40.71;22.75
10946;BME280;5525;42.648;23.368;2022-07-30T06:18:17;94698.41;;;41.61;21.42
10946;BME280;5525;42.648;23.368;2022-07-30T06:20:44;94682.25;;;41.39;21.18
10946;BME280;5525;42.648;23.368;2022-07-30T06:23:11;94689.03;;;41.25;21.66
10946;BME280;5525;42.648;23.368;2022-07-30T06:25:37;94655.56;;;41.64;21.15
10946;BME280;5525;42.648;23.368;2022-07-30T06:28:06;94695.50;;;42.37;20.46
10946;BME280;5525;42.648;23.368;2022-07-30T06:30:32;94681.75;;;42.94;19.49
10946;BME280;5525;42.648;23.368;2022-07-30T06:32:59;94680.38;;;42.53;19.67
10946;BME280;5525;42.648;23.368;2022-07-30T06:35:26;94677.03;;;43.02;19.28
10946;BME280;5525;42.648;23.368;2022-07-30T06:37:53;94664.31;;;42.61;19.40
10946;BME280;5525;42.648;23.368;2022-07-30T06:40:20;94631.75;;;42.38;19.75
10946;BME280;5525;42.648;23.368;2022-07-30T06:42:47;94670.78;;;42.32;19.61
10946;BME280;5525;42.648;23.368;2022-07-30T06:45:15;94671.34;;;43.02;19.25
10946;BME280;5525;42.648;23.368;2022-07-30T06:47:42;94651.50;;;44.08;18.13
10946;BME280;5525;42.648;23.368;2022-07-30T06:50:09;94682.31;;;43.91;18.55
10946;BME280;5525;42.648;23.368;2022-07-30T06:52:36;94664.06;;;43.81;18.36
10946;BME280;5525;42.648;23.368;2022-07-30T06:55:04;94673.41;;;44.58;18.03
10946;BME280;5525;42.648;23.368;2022-07-30T06:57:32;94670.16;;;43.54;18.75
10946;BME280;5525;42.648;23.368;2022-07-30T07:00:07;94667.66;;;44.32;18.17
10946;BME280;5525;42.648;23.368;2022-07-30T07:02:36;94649.34;;;44.85;17.78
10946;BME280;5525;42.648;23.368;2022-07-30T07:05:04;94659.31;;;44.79;17.54
10946;BME280;5525;42.648;23.368;2022-07-30T07:07:33;94630.28;;;44.22;17.73
10946;BME280;5525;42.648;23.368;2022-07-30T07:10:05;94658.84;;;45.40;17.16
10946;BME280;5525;42.648;23.368;2022-07-30T07:12:39;94651.78;;;45.54;17.19
10946;BME280;5525;42.648;23.368;2022-07-30T07:15:07;94641.56;;;45.12;17.31
10946;BME280;5525;42.648;23.368;2022-07-30T07:17:36;94638.44;;;44.44;17.82
10946;BME280;5525;42.648;23.368;2022-07-30T07:20:05;94652.28;;;44.93;17.51
10946;BME280;5525;42.648;23.368;2022-07-30T07:22:32;94645.38;;;45.14;17.31
10946;BME280;5525;42.648;23.368;2022-07-30T07:24:59;94643.66;;;44.27;18.28
10946;BME280;5525;42.648;23.368;2022-07-30T07:27:26;94623.03;;;44.79;17.82
10946;BME280;5525;42.648;23.368;2022-07-30T07:29:53;94633.94;;;45.87;16.77
10946;BME280;5525;42.648;23.368;2022-07-30T07:32:20;94641.84;;;47.19;15.96
10946;BME280;5525;42.648;23.368;2022-07-30T07:34:48;94638.09;;;45.86;16.90
10946;BME280;5525;42.648;23.368;2022-07-30T07:37:15;94610.50;;;45.21;17.26
10946;BME280;5525;42.648;23.368;2022-07-30T07:39:42;94634.09;;;45.68;16.98
10946;BME280;5525;42.648;23.368;2022-07-30T07:42:09;94624.94;;;45.49;16.84
10946;BME280;5525;42.648;23.368;2022-07-30T07:44:36;94637.44;;;47.18;15.70
10946;BME280;5525;42.648;23.368;2022-07-30T07:47:04;94635.13;;;47.52;15.43
10946;BME280;5525;42.648;23.368;2022-07-30T07:49:30;94635.50;;;47.13;15.54
10946;BME280;5525;42.648;23.368;2022-07-30T07:51:59;94634.78;;;47.20;15.46
10946;BME280;5525;42.648;23.368;2022-07-30T07:54:26;94633.56;;;47.01;15.16
10946;BME280;5525;42.648;23.368;2022-07-30T07:56:53;94632.47;;;46.83;15.45
10946;BME280;5525;42.648;23.368;2022-07-30T07:59:21;94633.13;;;47.83;14.72
10946;BME280;5525;42.648;23.368;2022-07-30T08:01:48;94622.81;;;47.80;14.99
10946;BME280;5525;42.648;23.368;2022-07-30T08:04:16;94628.59;;;47.44;14.79
10946;BME280;5525;42.648;23.368;2022-07-30T08:06:43;94633.81;;;48.42;14.24
10946;BME280;5525;42.648;23.368;2022-07-30T08:09:11;94641.09;;;48.73;13.98
10946;BME280;5525;42.648;23.368;2022-07-30T08:11:38;94630.59;;;47.64;14.86
10946;BME280;5525;42.648;23.368;2022-07-30T08:14:04;94633.44;;;48.53;14.40
10946;BME280;5525;42.648;23.368;2022-07-30T08:16:31;94627.94;;;49.40;13.53
10946;BME280;5525;42.648;23.368;2022-07-30T08:18:58;94634.75;;;48.22;13.78
10946;BME280;5525;42.648;23.368;2022-07-30T08:21:25;94624.31;;;49.24;13.15
10946;BME280;5525;42.648;23.368;2022-07-30T08:23:52;94627.09;;;49.94;13.03
10946;BME280;5525;42.648;23.368;2022-07-30T08:26:20;94622.72;;;46.51;15.70
10946;BME280;5525;42.648;23.368;2022-07-30T08:28:47;94612.41;;;48.58;14.27
10946;BME280;5525;42.648;23.368;2022-07-30T08:31:14;94625.31;;;50.80;12.76
10946;BME280;5525;42.648;23.368;2022-07-30T08:33:41;94607.72;;;49.15;13.77
10946;BME280;5525;42.648;23.368;2022-07-30T08:36:08;94607.78;;;48.92;13.59
10946;BME280;5525;42.648;23.368;2022-07-30T08:38:35;94623.47;;;48.91;14.00
10946;BME280;5525;42.648;23.368;2022-07-30T08:41:01;94579.13;;;49.40;13.54
10946;BME280;5525;42.648;23.368;2022-07-30T08:43:30;94604.59;;;48.36;13.99
10946;BME280;5525;42.648;23.368;2022-07-30T08:45:57;94610.31;;;48.21;14.42
10946;BME280;5525;42.648;23.368;2022-07-30T08:48:27;94584.59;;;49.13;13.18
10946;BME280;5525;42.648;23.368;2022-07-30T08:50:55;94586.00;;;49.84;13.08
10946;BME280;5525;42.648;23.368;2022-07-30T08:53:22;94595.06;;;49.73;12.97
10946;BME280;5525;42.648;23.368;2022-07-30T08:55:52;94596.50;;;49.49;13.04
10946;BME280;5525;42.648;23.368;2022-07-30T08:58:27;94598.16;;;49.67;12.80
10946;BME280;5525;42.648;23.368;2022-07-30T09:00:56;94601.22;;;50.01;13.04
10946;BME280;5525;42.648;23.368;2022-07-30T09:03:23;94592.00;;;50.27;12.76
10946;BME280;5525;42.648;23.368;2022-07-30T09:05:50;94570.50;;;50.36;12.42
10946;BME280;5525;42.648;23.368;2022-07-30T09:08:17;94588.78;;;50.73;12.36
10946;BME280;5525;42.648;23.368;2022-07-30T09:10:46;94546.13;;;48.01;13.85
10946;BME280;5525;42.648;23.368;2022-07-30T09:13:28;94524.34;;;48.36;13.58
10946;BME280;5525;42.648;23.368;2022-07-30T09:15:58;94541.56;;;49.13;13.39
10946;BME280;5525;42.648;23.368;2022-07-30T09:18:29;94540.78;;;49.84;12.64
10946;BME280;5525;42.648;23.368;2022-07-30T09:20:59;94556.59;;;47.76;14.45
10946;BME280;5525;42.648;23.368;2022-07-30T09:23:26;94564.66;;;48.15;13.78
10946;BME280;5525;42.648;23.368;2022-07-30T09:25:54;94501.63;;;47.04;14.60
10946;BME280;5525;42.648;23.368;2022-07-30T09:28:28;94553.06;;;47.47;14.51
10946;BME280;5525;42.648;23.368;2022-07-30T09:30:57;94546.88;;;48.32;13.88
10946;BME280;5525;42.648;23.368;2022-07-30T09:33:34;94534.22;;;49.35;12.91
10946;BME280;5525;42.648;23.368;2022-07-30T09:36:01;94547.25;;;48.66;13.79
10946;BME280;5525;42.648;23.368;2022-07-30T09:38:37;94539.78;;;47.07;14.78
10946;BME280;5525;42.648;23.368;2022-07-30T09:41:07;94522.31;;;47.25;14.70
10946;BME280;5525;42.648;23.368;2022-07-30T09:43:44;94533.34;;;47.95;14.25
10946;BME280;5525;42.648;23.368;2022-07-30T09:46:13;94538.28;;;48.62;13.91
10946;BME280;5525;42.648;23.368;2022-07-30T09:48:41;94533.06;;;48.75;13.55
10946;BME280;5525;42.648;23.368;2022-07-30T09:56:32;94523.22;;;49.08;13.29
10946;BME280;5525;42.648;23.368;2022-07-30T09:59:05;94503.63;;;49.86;12.82
10946;BME280;5525;42.648;23.368;2022-07-30T10:01:52;94521.22;;;47.43;14.26
10946;BME280;5525;42.648;23.368;2022-07-30T10:04:23;94518.53;;;49.68;13.34
10946;BME280;5525;42.648;23.368;2022-07-30T10:06:50;94517.44;;;49.56;13.26
10946;BME280;5525;42.648;23.368;2022-07-30T10:09:27;94505.59;;;49.12;13.03
10946;BME280;5525;42.648;23.368;2022-07-30T10:11:56;94498.16;;;49.09;13.60
10946;BME280;5525;42.648;23.368;2022-07-30T10:14:27;94505.38;;;48.55;13.73
10946;BME280;5525;42.648;23.368;2022-07-30T10:16:58;94487.13;;;49.38;13.05
10946;BME280;5525;42.648;23.368;2022-07-30T10:19:25;94495.97;;;48.85;13.48
10946;BME280;5525;42.648;23.368;2022-07-30T10:24:30;94492.47;;;48.02;13.56
10946;BME280;5525;42.648;23.368;2022-07-30T10:26:57;94497.94;;;47.47;14.08
10946;BME280;5525;42.648;23.368;2022-07-30T10:29:23;94457.69;;;47.37;14.10
10946;BME280;5525;42.648;23.368;2022-07-30T10:31:50;94429.50;;;47.64;13.92
10946;BME280;5525;42.648;23.368;2022-07-30T10:34:19;94461.50;;;48.38;13.55
10946;BME280;5525;42.648;23.368;2022-07-30T10:36:49;94475.78;;;48.53;13.57
10946;BME280;5525;42.648;23.368;2022-07-30T10:39:20;94476.66;;;48.85;13.41
10946;BME280;5525;42.648;23.368;2022-07-30T10:42:00;94485.00;;;48.29;13.82
10946;BME280;5525;42.648;23.368;2022-07-30T10:44:54;94447.03;;;48.13;13.67
10946;BME280;5525;42.648;23.368;2022-07-30T10:47:28;94463.84;;;47.94;13.75
10946;BME280;5525;42.648;23.368;2022-07-30T10:50:10;94450.84;;;46.82;14.58
10946;BME280;5525;42.648;23.368;2022-07-30T10:52:46;94458.69;;;46.18;15.28
10946;BME280;5525;42.648;23.368;2022-07-30T10:55:17;94433.88;;;42.09;18.32
10946;BME280;5525;42.648;23.368;2022-07-30T10:58:02;94444.09;;;43.42;17.05
10946;BME280;5525;42.648;23.368;2022-07-30T11:00:30;94445.19;;;43.83;16.92
10946;BME280;5525;42.648;23.368;2022-07-30T11:03:12;94416.22;;;44.70;16.18
10946;BME280;5525;42.648;23.368;2022-07-30T11:05:42;94403.13;;;46.19;15.16
10946;BME280;5525;42.648;23.368;2022-07-30T11:08:35;94438.03;;;48.09;14.02
10946;BME280;5525;42.648;23.368;2022-07-30T11:11:04;94423.19;;;46.77;14.76
10946;BME280;5525;42.648;23.368;2022-07-30T11:13:52;94414.44;;;45.76;15.66
10946;BME280;5525;42.648;23.368;2022-07-30T11:16:20;94392.00;;;43.20;17.43
10946;BME280;5525;42.648;23.368;2022-07-30T11:19:05;94412.41;;;39.62;20.70
10946;BME280;5525;42.648;23.368;2022-07-30T11:21:33;94405.03;;;39.09;21.31
10946;BME280;5525;42.648;23.368;2022-07-30T11:24:01;94403.63;;;41.93;19.09
10946;BME280;5525;42.648;23.368;2022-07-30T11:26:50;94400.72;;;42.41;18.51
10946;BME280;5525;42.648;23.368;2022-07-30T11:29:47;94406.31;;;43.15;17.84
10946;BME280;5525;42.648;23.368;2022-07-30T11:32:28;94397.41;;;43.05;17.92
10946;BME280;5525;42.648;23.368;2022-07-30T11:35:13;94393.50;;;43.66;17.23
10946;BME280;5525;42.648;23.368;2022-07-30T11:38:03;94364.34;;;43.92;17.01
10946;BME280;5525;42.648;23.368;2022-07-30T11:53:23;94375.00;;;40.89;20.12
10946;BME280;5525;42.648;23.368;2022-07-30T11:55:52;94372.53;;;40.74;20.38
10946;BME280;5525;42.648;23.368;2022-07-30T11:58:26;94353.50;;;39.77;20.92
10946;BME280;5525;42.648;23.368;2022-07-30T12:00:55;94356.50;;;38.89;22.02
10946;BME280;5525;42.648;23.368;2022-07-30T12:03:25;94345.47;;;38.63;22.47
10946;BME280;5525;42.648;23.368;2022-07-30T12:05:53;94364.13;;;38.16;23.09
10946;BME280;5525;42.648;23.368;2022-07-30T12:08:22;94342.56;;;37.49;23.53
10946;BME280;5525;42.648;23.368;2022-07-30T12:10:57;94348.34;;;37.29;23.66
10946;BME280;5525;42.648;23.368;2022-07-30T12:13:24;94345.03;;;37.31;24.77
10946;BME280;5525;42.648;23.368;2022-07-30T12:15:52;94343.13;;;37.11;24.32
10946;BME280;5525;42.648;23.368;2022-07-30T12:18:23;94316.47;;;37.49;24.20
10946;BME280;5525;42.648;23.368;2022-07-30T12:20:55;94331.22;;;36.90;24.65
10946;BME280;5525;42.648;23.368;2022-07-30T12:23:23;94317.16;;;36.03;25.33
10946;BME280;5525;42.648;23.368;2022-07-30T12:25:51;94331.03;;;36.12;25.78
10946;BME280;5525;42.648;23.368;2022-07-30T12:28:19;94321.16;;;35.96;26.16
10946;BME280;5525;42.648;23.368;2022-07-30T12:30:47;94320.97;;;35.80;25.80
10946;BME280;5525;42.648;23.368;2022-07-30T12:33:14;94311.84;;;35.85;26.27
10946;BME280;5525;42.648;23.368;2022-07-30T12:35:42;94313.22;;;36.20;25.94
10946;BME280;5525;42.648;23.368;2022-07-30T12:38:10;94305.19;;;35.62;26.48
10946;BME280;5525;42.648;23.368;2022-07-30T12:40:52;94287.78;;;34.98;27.13
10946;BME280;5525;42.648;23.368;2022-07-30T12:43:47;94270.47;;;34.85;27.19
10946;BME280;5525;42.648;23.368;2022-07-30T12:46:19;94288.78;;;34.80;27.41
10946;BME280;5525;42.648;23.368;2022-07-30T12:48:55;94282.00;;;34.87;27.66
10946;BME280;5525;42.648;23.368;2022-07-30T12:51:24;94278.72;;;35.08;26.78
10946;BME280;5525;42.648;23.368;2022-07-30T12:53:53;94276.41;;;34.87;28.02
10946;BME280;5525;42.648;23.368;2022-07-30T12:56:24;94263.81;;;34.48;27.93
10946;BME280;5525;42.648;23.368;2022-07-30T12:58:51;94259.44;;;34.61;27.99
10946;BME280;5525;42.648;23.368;2022-07-30T13:01:38;94248.41;;;34.92;27.70
10946;BME280;5525;42.648;23.368;2022-07-30T13:04:08;94244.63;;;35.35;27.33
10946;BME280;5525;42.648;23.368;2022-07-30T13:06:35;94233.72;;;35.23;26.54
10946;BME280;5525;42.648;23.368;2022-07-30T13:09:04;94250.84;;;35.25;27.74
10946;BME280;5525;42.648;23.368;2022-07-30T13:11:39;94236.78;;;35.39;27.54
10946;BME280;5525;42.648;23.368;2022-07-30T13:14:07;94234.72;;;35.40;27.12
10946;BME280;5525;42.648;23.368;2022-07-30T13:16:35;94251.34;;;35.23;26.62
10946;BME280;5525;42.648;23.368;2022-07-30T13:19:02;94204.63;;;34.11;27.46
10946;BME280;5525;42.648;23.368;2022-07-30T13:21:29;94256.19;;;34.34;27.75
10946;BME280;5525;42.648;23.368;2022-07-30T13:23:59;94234.94;;;34.27;27.70
10946;BME280;5525;42.648;23.368;2022-07-30T13:26:27;94214.41;;;34.01;27.82
10946;BME280;5525;42.648;23.368;2022-07-30T13:28:56;94242.56;;;34.27;28.11
10946;BME280;5525;42.648;23.368;2022-07-30T13:31:24;94214.66;;;34.03;27.69
10946;BME280;5525;42.648;23.368;2022-07-30T13:33:51;94244.31;;;34.39;28.02